Farson, Wyoming
Current Conditions -  °F | °C
As of 12:54 AM on Tuesday 21 Oct 2014 (Local Time) from KRKS Reporting Station
Clear Clear  
Wind Chill: 50°   Ceiling: Unl
Heat Index: 50°   Visibility: 10mi
Dew Point: 33°   Wind: 9mph
Humidity: 52%   Direction: 150°SSE
Pressure: 30.07"   Gusts: NA
Location:  42.11°N, 109.44°W
Report Text: KRKS 210654Z AUTO 15008KT 10SM CLR 10/01 A3007 RMK AO2 SLP121 T01000006 402000028
Loading
Personal Weather Stations






























Interactive Weather Map
Tropical Storm Tracking
New forecast layout! Learn more

10-Day Weather Forecast

Advertisements
Track Severe Weather on mobile